sim
Sign-in with your pilot id or email,
or register
Callsign
Passwort

Schedule Details

Flight Number: OEF9000
Departure: Munich Airport (EDDM) at 18:35
Arrival: Dubai International Airport (OMDB) at 23:50

Weather Information
Getting current METAR information for EDDM 210550Z VRB01KT 9999 1500SE BCFG NSC 07/07 Q1017 NOSIG
Getting current METAR information for OMDB 210500Z 13003KT 5000 HZ NSC 31/25 Q1004 BECMG 8000 NSW

Schedule Frequency

Route Map